sensor_id;sensor_type;location;lat;lon;timestamp;temperature;humidity
42743;DHT22;28397;44.552;-0.848;2024-01-15T00:00:44;7.60;99.90
42743;DHT22;28397;44.552;-0.848;2024-01-15T00:03:09;7.80;99.90
42743;DHT22;28397;44.552;-0.848;2024-01-15T00:05:36;7.90;99.90
42743;DHT22;28397;44.552;-0.848;2024-01-15T00:08:01;8.00;99.90
42743;DHT22;28397;44.552;-0.848;2024-01-15T00:10:27;8.00;99.90
42743;DHT22;28397;44.552;-0.848;2024-01-15T00:12:53;8.00;99.90
42743;DHT22;28397;44.552;-0.848;2024-01-15T00:15:18;7.90;99.90
42743;DHT22;28397;44.552;-0.848;2024-01-15T00:17:44;7.70;99.90
42743;DHT22;28397;44.552;-0.848;2024-01-15T00:20:10;7.60;99.90
42743;DHT22;28397;44.552;-0.848;2024-01-15T00:22:36;7.60;99.90
42743;DHT22;28397;44.552;-0.848;2024-01-15T00:25:02;7.50;99.90
42743;DHT22;28397;44.552;-0.848;2024-01-15T00:27:28;7.40;99.90
42743;DHT22;28397;44.552;-0.848;2024-01-15T00:29:54;7.40;99.90
42743;DHT22;28397;44.552;-0.848;2024-01-15T00:32:20;7.30;99.90
42743;DHT22;28397;44.552;-0.848;2024-01-15T00:34:46;7.30;99.90
42743;DHT22;28397;44.552;-0.848;2024-01-15T00:37:12;7.30;99.90
42743;DHT22;28397;44.552;-0.848;2024-01-15T00:39:37;7.30;99.90
42743;DHT22;28397;44.552;-0.848;2024-01-15T00:42:03;7.30;99.90
42743;DHT22;28397;44.552;-0.848;2024-01-15T00:44:29;7.30;99.90
42743;DHT22;28397;44.552;-0.848;2024-01-15T00:46:54;7.20;99.90
42743;DHT22;28397;44.552;-0.848;2024-01-15T00:49:20;7.20;99.90
42743;DHT22;28397;44.552;-0.848;2024-01-15T00:51:47;7.20;99.90
42743;DHT22;28397;44.552;-0.848;2024-01-15T00:54:14;7.20;99.90
42743;DHT22;28397;44.552;-0.848;2024-01-15T00:56:40;7.20;99.90
42743;DHT22;28397;44.552;-0.848;2024-01-15T00:59:05;7.20;99.90
42743;DHT22;28397;44.552;-0.848;2024-01-15T01:01:31;7.20;99.90
42743;DHT22;28397;44.552;-0.848;2024-01-15T01:03:57;7.20;99.90
42743;DHT22;28397;44.552;-0.848;2024-01-15T01:06:23;7.20;99.90
42743;DHT22;28397;44.552;-0.848;2024-01-15T01:08:48;7.30;99.90
42743;DHT22;28397;44.552;-0.848;2024-01-15T01:11:17;7.20;99.90
42743;DHT22;28397;44.552;-0.848;2024-01-15T01:13:43;7.20;99.90
42743;DHT22;28397;44.552;-0.848;2024-01-15T01:16:08;7.20;99.90
42743;DHT22;28397;44.552;-0.848;2024-01-15T01:18:35;7.20;99.90
42743;DHT22;28397;44.552;-0.848;2024-01-15T01:21:00;7.20;99.90
42743;DHT22;28397;44.552;-0.848;2024-01-15T01:23:26;7.20;99.90
42743;DHT22;28397;44.552;-0.848;2024-01-15T01:25:52;7.20;99.90
42743;DHT22;28397;44.552;-0.848;2024-01-15T01:28:17;7.20;99.90
42743;DHT22;28397;44.552;-0.848;2024-01-15T01:30:43;7.20;99.90
42743;DHT22;28397;44.552;-0.848;2024-01-15T01:33:08;7.20;99.90
42743;DHT22;28397;44.552;-0.848;2024-01-15T01:35:34;7.20;99.90
42743;DHT22;28397;44.552;-0.848;2024-01-15T01:38:00;7.20;99.90
42743;DHT22;28397;44.552;-0.848;2024-01-15T01:40:25;7.20;99.90
42743;DHT22;28397;44.552;-0.848;2024-01-15T01:42:51;7.20;99.90
42743;DHT22;28397;44.552;-0.848;2024-01-15T01:45:16;7.20;99.90
42743;DHT22;28397;44.552;-0.848;2024-01-15T01:47:42;7.20;99.90
42743;DHT22;28397;44.552;-0.848;2024-01-15T01:50:08;7.20;99.90
42743;DHT22;28397;44.552;-0.848;2024-01-15T01:52:34;7.20;99.90
42743;DHT22;28397;44.552;-0.848;2024-01-15T01:55:02;7.20;99.90
42743;DHT22;28397;44.552;-0.848;2024-01-15T01:57:29;7.30;99.90
42743;DHT22;28397;44.552;-0.848;2024-01-15T01:59:56;7.60;99.90
42743;DHT22;28397;44.552;-0.848;2024-01-15T02:02:23;7.80;99.90
42743;DHT22;28397;44.552;-0.848;2024-01-15T02:04:50;7.90;99.90
42743;DHT22;28397;44.552;-0.848;2024-01-15T02:07:15;8.00;99.90
42743;DHT22;28397;44.552;-0.848;2024-01-15T02:09:44;8.10;99.90
42743;DHT22;28397;44.552;-0.848;2024-01-15T02:12:09;8.20;99.90
42743;DHT22;28397;44.552;-0.848;2024-01-15T02:14:35;8.20;99.90
42743;DHT22;28397;44.552;-0.848;2024-01-15T02:17:01;8.20;99.90
42743;DHT22;28397;44.552;-0.848;2024-01-15T02:19:26;8.10;99.90
42743;DHT22;28397;44.552;-0.848;2024-01-15T02:21:52;7.90;99.90
42743;DHT22;28397;44.552;-0.848;2024-01-15T02:24:18;7.80;99.90
42743;DHT22;28397;44.552;-0.848;2024-01-15T02:26:44;7.70;99.90
42743;DHT22;28397;44.552;-0.848;2024-01-15T02:29:10;7.60;99.90
42743;DHT22;28397;44.552;-0.848;2024-01-15T02:31:37;7.60;99.90
42743;DHT22;28397;44.552;-0.848;2024-01-15T02:34:02;7.50;99.90
42743;DHT22;28397;44.552;-0.848;2024-01-15T02:36:28;7.40;99.90
42743;DHT22;28397;44.552;-0.848;2024-01-15T02:38:54;7.40;99.90
42743;DHT22;28397;44.552;-0.848;2024-01-15T02:41:19;7.40;99.90
42743;DHT22;28397;44.552;-0.848;2024-01-15T02:43:45;7.40;99.90
42743;DHT22;28397;44.552;-0.848;2024-01-15T02:46:10;7.40;99.90
42743;DHT22;28397;44.552;-0.848;2024-01-15T02:48:36;7.40;99.90
42743;DHT22;28397;44.552;-0.848;2024-01-15T02:51:02;7.30;99.90
42743;DHT22;28397;44.552;-0.848;2024-01-15T02:53:27;7.40;99.90
42743;DHT22;28397;44.552;-0.848;2024-01-15T02:55:53;7.40;99.90
42743;DHT22;28397;44.552;-0.848;2024-01-15T02:58:19;7.40;99.90
42743;DHT22;28397;44.552;-0.848;2024-01-15T03:00:44;7.40;99.90
42743;DHT22;28397;44.552;-0.848;2024-01-15T03:03:11;7.40;99.90
42743;DHT22;28397;44.552;-0.848;2024-01-15T03:05:37;7.40;99.90
42743;DHT22;28397;44.552;-0.848;2024-01-15T03:08:03;7.30;99.90
42743;DHT22;28397;44.552;-0.848;2024-01-15T03:10:29;7.30;99.90
42743;DHT22;28397;44.552;-0.848;2024-01-15T03:12:54;7.30;99.90
42743;DHT22;28397;44.552;-0.848;2024-01-15T03:15:20;7.30;99.90
42743;DHT22;28397;44.552;-0.848;2024-01-15T03:17:45;7.30;99.90
42743;DHT22;28397;44.552;-0.848;2024-01-15T03:20:11;7.40;99.90
42743;DHT22;28397;44.552;-0.848;2024-01-15T03:22:37;7.40;99.90
42743;DHT22;28397;44.552;-0.848;2024-01-15T03:25:04;7.40;99.90
42743;DHT22;28397;44.552;-0.848;2024-01-15T03:27:29;7.30;99.90
42743;DHT22;28397;44.552;-0.848;2024-01-15T03:29:55;7.30;99.90
42743;DHT22;28397;44.552;-0.848;2024-01-15T03:32:21;7.40;99.90
42743;DHT22;28397;44.552;-0.848;2024-01-15T03:34:46;7.30;99.90
42743;DHT22;28397;44.552;-0.848;2024-01-15T03:37:13;7.30;99.90
42743;DHT22;28397;44.552;-0.848;2024-01-15T03:39:39;7.30;99.90
42743;DHT22;28397;44.552;-0.848;2024-01-15T03:42:04;7.30;99.90
42743;DHT22;28397;44.552;-0.848;2024-01-15T03:44:30;7.30;99.90
42743;DHT22;28397;44.552;-0.848;2024-01-15T03:46:55;7.30;99.90
42743;DHT22;28397;44.552;-0.848;2024-01-15T03:49:21;7.40;99.90
42743;DHT22;28397;44.552;-0.848;2024-01-15T03:51:47;7.30;99.90
42743;DHT22;28397;44.552;-0.848;2024-01-15T03:54:12;7.50;99.90
42743;DHT22;28397;44.552;-0.848;2024-01-15T03:56:38;7.60;99.90
42743;DHT22;28397;44.552;-0.848;2024-01-15T03:59:04;7.80;99.90
42743;DHT22;28397;44.552;-0.848;2024-01-15T04:01:29;8.00;99.90
42743;DHT22;28397;44.552;-0.848;2024-01-15T04:03:55;8.10;99.90
42743;DHT22;28397;44.552;-0.848;2024-01-15T04:06:21;8.10;99.90
42743;DHT22;28397;44.552;-0.848;2024-01-15T04:08:46;8.20;99.90
42743;DHT22;28397;44.552;-0.848;2024-01-15T04:11:12;8.40;99.90
42743;DHT22;28397;44.552;-0.848;2024-01-15T04:13:38;8.30;99.90
42743;DHT22;28397;44.552;-0.848;2024-01-15T04:16:04;8.10;99.90
42743;DHT22;28397;44.552;-0.848;2024-01-15T04:18:30;8.00;99.90
42743;DHT22;28397;44.552;-0.848;2024-01-15T04:20:55;7.90;99.90
42743;DHT22;28397;44.552;-0.848;2024-01-15T04:23:21;7.90;99.90
42743;DHT22;28397;44.552;-0.848;2024-01-15T04:25:47;7.80;99.90
42743;DHT22;28397;44.552;-0.848;2024-01-15T04:28:12;7.80;99.90
42743;DHT22;28397;44.552;-0.848;2024-01-15T04:30:38;7.80;99.90
42743;DHT22;28397;44.552;-0.848;2024-01-15T04:33:04;7.80;99.90
42743;DHT22;28397;44.552;-0.848;2024-01-15T04:35:30;7.80;99.90
42743;DHT22;28397;44.552;-0.848;2024-01-15T04:37:56;7.80;99.90
42743;DHT22;28397;44.552;-0.848;2024-01-15T04:40:22;7.80;99.90
42743;DHT22;28397;44.552;-0.848;2024-01-15T04:42:48;7.80;99.90
42743;DHT22;28397;44.552;-0.848;2024-01-15T04:45:13;7.80;99.90
42743;DHT22;28397;44.552;-0.848;2024-01-15T04:47:39;7.80;99.90
42743;DHT22;28397;44.552;-0.848;2024-01-15T04:50:05;7.80;99.90
42743;DHT22;28397;44.552;-0.848;2024-01-15T04:52:31;7.80;99.90
42743;DHT22;28397;44.552;-0.848;2024-01-15T04:54:57;7.80;99.90
42743;DHT22;28397;44.552;-0.848;2024-01-15T04:57:22;7.80;99.90
42743;DHT22;28397;44.552;-0.848;2024-01-15T04:59:48;7.80;99.90
42743;DHT22;28397;44.552;-0.848;2024-01-15T05:02:13;7.80;99.90
42743;DHT22;28397;44.552;-0.848;2024-01-15T05:04:39;7.80;99.90
42743;DHT22;28397;44.552;-0.848;2024-01-15T05:07:05;7.80;99.90
42743;DHT22;28397;44.552;-0.848;2024-01-15T05:09:30;7.80;99.90
42743;DHT22;28397;44.552;-0.848;2024-01-15T05:11:56;7.80;99.90
42743;DHT22;28397;44.552;-0.848;2024-01-15T05:14:22;7.80;99.90
42743;DHT22;28397;44.552;-0.848;2024-01-15T05:16:49;7.80;99.90
42743;DHT22;28397;44.552;-0.848;2024-01-15T05:19:15;7.80;99.90
42743;DHT22;28397;44.552;-0.848;2024-01-15T05:21:41;7.80;99.90
42743;DHT22;28397;44.552;-0.848;2024-01-15T05:24:08;7.80;99.90
42743;DHT22;28397;44.552;-0.848;2024-01-15T05:26:33;7.80;99.90
42743;DHT22;28397;44.552;-0.848;2024-01-15T05:28:59;7.80;99.90
42743;DHT22;28397;44.552;-0.848;2024-01-15T05:31:25;7.80;99.90
42743;DHT22;28397;44.552;-0.848;2024-01-15T05:33:50;7.80;99.90
42743;DHT22;28397;44.552;-0.848;2024-01-15T05:36:16;7.90;99.90
42743;DHT22;28397;44.552;-0.848;2024-01-15T05:38:42;7.90;99.90
42743;DHT22;28397;44.552;-0.848;2024-01-15T05:41:07;7.90;99.90
42743;DHT22;28397;44.552;-0.848;2024-01-15T05:43:33;7.90;99.90
42743;DHT22;28397;44.552;-0.848;2024-01-15T05:45:59;7.90;99.90
42743;DHT22;28397;44.552;-0.848;2024-01-15T05:48:24;7.90;99.90
42743;DHT22;28397;44.552;-0.848;2024-01-15T05:50:50;7.90;99.90
42743;DHT22;28397;44.552;-0.848;2024-01-15T05:53:15;8.10;99.90
42743;DHT22;28397;44.552;-0.848;2024-01-15T05:55:41;8.30;99.90
42743;DHT22;28397;44.552;-0.848;2024-01-15T05:58:07;8.40;99.90
42743;DHT22;28397;44.552;-0.848;2024-01-15T06:00:33;8.50;99.90
42743;DHT22;28397;44.552;-0.848;2024-01-15T06:03:00;8.60;99.90
42743;DHT22;28397;44.552;-0.848;2024-01-15T06:05:26;8.80;99.90
42743;DHT22;28397;44.552;-0.848;2024-01-15T06:07:51;8.70;99.90
42743;DHT22;28397;44.552;-0.848;2024-01-15T06:10:17;8.80;99.90
42743;DHT22;28397;44.552;-0.848;2024-01-15T06:12:43;8.70;99.90
42743;DHT22;28397;44.552;-0.848;2024-01-15T06:15:09;8.70;99.90
42743;DHT22;28397;44.552;-0.848;2024-01-15T06:17:35;8.50;99.90
42743;DHT22;28397;44.552;-0.848;2024-01-15T06:20:01;8.50;99.90
42743;DHT22;28397;44.552;-0.848;2024-01-15T06:22:27;8.40;99.90
42743;DHT22;28397;44.552;-0.848;2024-01-15T06:24:52;8.30;99.90
42743;DHT22;28397;44.552;-0.848;2024-01-15T06:27:18;8.30;99.90
42743;DHT22;28397;44.552;-0.848;2024-01-15T06:29:47;8.30;99.90
42743;DHT22;28397;44.552;-0.848;2024-01-15T06:32:13;8.20;99.90
42743;DHT22;28397;44.552;-0.848;2024-01-15T06:34:39;8.20;99.90
42743;DHT22;28397;44.552;-0.848;2024-01-15T06:37:05;8.20;99.90
42743;DHT22;28397;44.552;-0.848;2024-01-15T06:39:30;8.10;99.90
42743;DHT22;28397;44.552;-0.848;2024-01-15T06:41:56;8.20;99.90
42743;DHT22;28397;44.552;-0.848;2024-01-15T06:44:21;8.20;99.90
42743;DHT22;28397;44.552;-0.848;2024-01-15T06:46:48;8.20;99.90
42743;DHT22;28397;44.552;-0.848;2024-01-15T06:49:13;8.20;99.90
42743;DHT22;28397;44.552;-0.848;2024-01-15T06:51:39;8.20;99.90
42743;DHT22;28397;44.552;-0.848;2024-01-15T06:54:05;8.20;99.90
42743;DHT22;28397;44.552;-0.848;2024-01-15T06:56:31;8.30;99.90
42743;DHT22;28397;44.552;-0.848;2024-01-15T06:58:57;8.30;99.90
42743;DHT22;28397;44.552;-0.848;2024-01-15T07:01:23;8.30;99.90
42743;DHT22;28397;44.552;-0.848;2024-01-15T07:03:49;8.30;99.90
42743;DHT22;28397;44.552;-0.848;2024-01-15T07:06:15;8.40;99.90
42743;DHT22;28397;44.552;-0.848;2024-01-15T07:08:41;8.40;99.90
42743;DHT22;28397;44.552;-0.848;2024-01-15T07:11:07;8.40;99.90
42743;DHT22;28397;44.552;-0.848;2024-01-15T07:13:33;8.40;99.90
42743;DHT22;28397;44.552;-0.848;2024-01-15T07:15:59;8.40;99.90
42743;DHT22;28397;44.552;-0.848;2024-01-15T07:18:25;8.40;99.90
42743;DHT22;28397;44.552;-0.848;2024-01-15T07:20:51;8.50;99.90
42743;DHT22;28397;44.552;-0.848;2024-01-15T07:23:16;8.50;99.90
42743;DHT22;28397;44.552;-0.848;2024-01-15T07:25:43;8.50;99.90
42743;DHT22;28397;44.552;-0.848;2024-01-15T07:28:09;8.50;99.90
42743;DHT22;28397;44.552;-0.848;2024-01-15T07:30:34;8.50;99.90
42743;DHT22;28397;44.552;-0.848;2024-01-15T07:33:00;8.50;99.90
42743;DHT22;28397;44.552;-0.848;2024-01-15T07:35:26;8.50;99.90
42743;DHT22;28397;44.552;-0.848;2024-01-15T07:37:51;8.50;99.90
42743;DHT22;28397;44.552;-0.848;2024-01-15T07:40:17;8.50;99.90
42743;DHT22;28397;44.552;-0.848;2024-01-15T07:42:43;8.50;99.90
42743;DHT22;28397;44.552;-0.848;2024-01-15T07:45:10;8.60;99.90
42743;DHT22;28397;44.552;-0.848;2024-01-15T07:47:36;8.70;99.90
42743;DHT22;28397;44.552;-0.848;2024-01-15T07:50:01;8.90;99.90
42743;DHT22;28397;44.552;-0.848;2024-01-15T07:52:27;8.90;99.90
42743;DHT22;28397;44.552;-0.848;2024-01-15T07:54:53;9.00;99.90
42743;DHT22;28397;44.552;-0.848;2024-01-15T07:57:18;9.20;99.90
42743;DHT22;28397;44.552;-0.848;2024-01-15T07:59:44;9.30;99.90
42743;DHT22;28397;44.552;-0.848;2024-01-15T08:02:10;9.40;99.90
42743;DHT22;28397;44.552;-0.848;2024-01-15T08:04:37;9.40;99.90
42743;DHT22;28397;44.552;-0.848;2024-01-15T08:07:04;9.40;99.90
42743;DHT22;28397;44.552;-0.848;2024-01-15T08:09:31;9.30;99.90
42743;DHT22;28397;44.552;-0.848;2024-01-15T08:11:56;9.20;99.90
42743;DHT22;28397;44.552;-0.848;2024-01-15T08:14:22;9.20;99.90
42743;DHT22;28397;44.552;-0.848;2024-01-15T08:16:48;9.20;99.90
42743;DHT22;28397;44.552;-0.848;2024-01-15T08:19:13;9.20;99.90
42743;DHT22;28397;44.552;-0.848;2024-01-15T08:21:39;9.20;99.90
42743;DHT22;28397;44.552;-0.848;2024-01-15T08:24:05;9.20;99.90
42743;DHT22;28397;44.552;-0.848;2024-01-15T08:26:31;9.20;99.90
42743;DHT22;28397;44.552;-0.848;2024-01-15T08:28:58;9.20;99.90
42743;DHT22;28397;44.552;-0.848;2024-01-15T08:31:24;9.20;99.90
42743;DHT22;28397;44.552;-0.848;2024-01-15T08:33:50;9.20;99.90
42743;DHT22;28397;44.552;-0.848;2024-01-15T08:36:16;9.20;99.90
42743;DHT22;28397;44.552;-0.848;2024-01-15T08:38:42;9.30;99.90
42743;DHT22;28397;44.552;-0.848;2024-01-15T08:41:08;9.20;99.90
42743;DHT22;28397;44.552;-0.848;2024-01-15T08:43:34;9.30;99.90
42743;DHT22;28397;44.552;-0.848;2024-01-15T08:46:00;9.30;99.90
42743;DHT22;28397;44.552;-0.848;2024-01-15T08:48:26;9.30;99.90
42743;DHT22;28397;44.552;-0.848;2024-01-15T08:50:55;9.40;99.90
42743;DHT22;28397;44.552;-0.848;2024-01-15T08:53:22;9.40;99.90
42743;DHT22;28397;44.552;-0.848;2024-01-15T08:55:47;9.50;99.90
42743;DHT22;28397;44.552;-0.848;2024-01-15T08:58:13;9.50;99.90
42743;DHT22;28397;44.552;-0.848;2024-01-15T09:00:39;9.60;99.90
42743;DHT22;28397;44.552;-0.848;2024-01-15T09:03:05;9.60;99.90
42743;DHT22;28397;44.552;-0.848;2024-01-15T09:05:31;9.70;99.90
42743;DHT22;28397;44.552;-0.848;2024-01-15T09:07:57;9.70;99.90
42743;DHT22;28397;44.552;-0.848;2024-01-15T09:10:23;9.70;99.90
42743;DHT22;28397;44.552;-0.848;2024-01-15T09:12:49;9.70;99.90
42743;DHT22;28397;44.552;-0.848;2024-01-15T09:15:15;9.80;99.90
42743;DHT22;28397;44.552;-0.848;2024-01-15T09:17:41;9.80;99.90
42743;DHT22;28397;44.552;-0.848;2024-01-15T09:20:07;9.90;99.90
42743;DHT22;28397;44.552;-0.848;2024-01-15T09:22:33;9.90;99.90
42743;DHT22;28397;44.552;-0.848;2024-01-15T09:24:59;9.90;99.90
42743;DHT22;28397;44.552;-0.848;2024-01-15T09:27:25;9.90;99.90
42743;DHT22;28397;44.552;-0.848;2024-01-15T09:29:53;9.90;99.90
42743;DHT22;28397;44.552;-0.848;2024-01-15T09:32:19;10.00;99.90
42743;DHT22;28397;44.552;-0.848;2024-01-15T09:34:48;10.00;99.90
42743;DHT22;28397;44.552;-0.848;2024-01-15T09:37:14;10.00;99.90
42743;DHT22;28397;44.552;-0.848;2024-01-15T09:39:40;10.10;99.90
42743;DHT22;28397;44.552;-0.848;2024-01-15T09:42:07;10.40;99.90
42743;DHT22;28397;44.552;-0.848;2024-01-15T09:44:33;10.40;99.90
42743;DHT22;28397;44.552;-0.848;2024-01-15T09:46:59;10.50;99.90
42743;DHT22;28397;44.552;-0.848;2024-01-15T09:49:25;10.60;99.90
42743;DHT22;28397;44.552;-0.848;2024-01-15T09:51:51;10.70;99.90
42743;DHT22;28397;44.552;-0.848;2024-01-15T09:54:17;10.80;99.90
42743;DHT22;28397;44.552;-0.848;2024-01-15T09:56:46;10.90;99.90
42743;DHT22;28397;44.552;-0.848;2024-01-15T09:59:15;11.00;99.90
42743;DHT22;28397;44.552;-0.848;2024-01-15T10:01:42;11.00;99.90
42743;DHT22;28397;44.552;-0.848;2024-01-15T10:04:12;11.00;99.90
42743;DHT22;28397;44.552;-0.848;2024-01-15T10:06:38;11.00;99.90
42743;DHT22;28397;44.552;-0.848;2024-01-15T10:09:05;11.00;99.90
42743;DHT22;28397;44.552;-0.848;2024-01-15T10:11:31;11.00;99.90
42743;DHT22;28397;44.552;-0.848;2024-01-15T10:13:59;11.00;99.90
42743;DHT22;28397;44.552;-0.848;2024-01-15T10:16:26;10.90;99.90
42743;DHT22;28397;44.552;-0.848;2024-01-15T10:18:51;10.90;99.90
42743;DHT22;28397;44.552;-0.848;2024-01-15T10:21:17;11.00;99.90
42743;DHT22;28397;44.552;-0.848;2024-01-15T10:23:43;11.00;99.90
42743;DHT22;28397;44.552;-0.848;2024-01-15T10:26:08;11.00;99.90
42743;DHT22;28397;44.552;-0.848;2024-01-15T10:28:34;11.00;99.90
42743;DHT22;28397;44.552;-0.848;2024-01-15T10:31:01;11.10;99.90
42743;DHT22;28397;44.552;-0.848;2024-01-15T10:33:27;11.10;99.90
42743;DHT22;28397;44.552;-0.848;2024-01-15T10:35:57;11.10;99.90
42743;DHT22;28397;44.552;-0.848;2024-01-15T10:38:24;11.10;99.90
42743;DHT22;28397;44.552;-0.848;2024-01-15T10:40:54;11.20;99.90
42743;DHT22;28397;44.552;-0.848;2024-01-15T10:43:20;11.20;99.90
42743;DHT22;28397;44.552;-0.848;2024-01-15T10:45:46;11.20;99.90
42743;DHT22;28397;44.552;-0.848;2024-01-15T10:48:12;11.20;99.90
42743;DHT22;28397;44.552;-0.848;2024-01-15T10:50:38;11.30;99.90
42743;DHT22;28397;44.552;-0.848;2024-01-15T10:53:04;11.20;99.90
42743;DHT22;28397;44.552;-0.848;2024-01-15T10:55:33;11.20;99.90
42743;DHT22;28397;44.552;-0.848;2024-01-15T10:58:00;11.20;99.90
42743;DHT22;28397;44.552;-0.848;2024-01-15T11:00:29;11.20;99.90
42743;DHT22;28397;44.552;-0.848;2024-01-15T11:02:55;11.20;99.90
42743;DHT22;28397;44.552;-0.848;2024-01-15T11:05:22;11.30;99.90
42743;DHT22;28397;44.552;-0.848;2024-01-15T11:07:49;11.30;99.90
42743;DHT22;28397;44.552;-0.848;2024-01-15T11:16:05;11.30;99.90
42743;DHT22;28397;44.552;-0.848;2024-01-15T11:21:24;11.40;99.90
42743;DHT22;28397;44.552;-0.848;2024-01-15T11:24:01;11.40;99.90
42743;DHT22;28397;44.552;-0.848;2024-01-15T11:26:31;11.40;99.90
42743;DHT22;28397;44.552;-0.848;2024-01-15T11:28:59;11.40;99.90
42743;DHT22;28397;44.552;-0.848;2024-01-15T11:34:07;11.60;99.90
42743;DHT22;28397;44.552;-0.848;2024-01-15T11:42:02;11.90;99.90
42743;DHT22;28397;44.552;-0.848;2024-01-15T11:44:31;12.00;99.90
42743;DHT22;28397;44.552;-0.848;2024-01-15T11:47:03;12.00;99.90
42743;DHT22;28397;44.552;-0.848;2024-01-15T11:52:11;12.10;99.90
42743;DHT22;28397;44.552;-0.848;2024-01-15T11:54:52;11.90;99.90
42743;DHT22;28397;44.552;-0.848;2024-01-15T11:57:28;11.80;99.90
42743;DHT22;28397;44.552;-0.848;2024-01-15T11:59:56;11.70;99.90
42743;DHT22;28397;44.552;-0.848;2024-01-15T12:02:22;11.60;99.90
42743;DHT22;28397;44.552;-0.848;2024-01-15T12:04:48;11.50;99.90
42743;DHT22;28397;44.552;-0.848;2024-01-15T12:07:13;11.50;99.90
42743;DHT22;28397;44.552;-0.848;2024-01-15T12:09:45;11.40;99.90
42743;DHT22;28397;44.552;-0.848;2024-01-15T12:12:23;11.40;99.90
42743;DHT22;28397;44.552;-0.848;2024-01-15T12:14:50;11.40;99.90
42743;DHT22;28397;44.552;-0.848;2024-01-15T12:17:16;11.40;99.90
42743;DHT22;28397;44.552;-0.848;2024-01-15T12:19:43;11.40;99.90
42743;DHT22;28397;44.552;-0.848;2024-01-15T12:22:09;11.40;99.90
42743;DHT22;28397;44.552;-0.848;2024-01-15T12:24:35;11.40;99.90
42743;DHT22;28397;44.552;-0.848;2024-01-15T12:27:01;11.50;99.90
42743;DHT22;28397;44.552;-0.848;2024-01-15T12:29:27;11.50;99.90
42743;DHT22;28397;44.552;-0.848;2024-01-15T12:31:53;11.50;99.90
42743;DHT22;28397;44.552;-0.848;2024-01-15T12:34:19;11.60;99.90
42743;DHT22;28397;44.552;-0.848;2024-01-15T12:36:46;11.60;99.90
42743;DHT22;28397;44.552;-0.848;2024-01-15T12:39:12;11.60;99.90
42743;DHT22;28397;44.552;-0.848;2024-01-15T12:41:38;11.60;99.90
42743;DHT22;28397;44.552;-0.848;2024-01-15T12:44:04;11.70;99.90
42743;DHT22;28397;44.552;-0.848;2024-01-15T12:46:31;11.70;99.90
42743;DHT22;28397;44.552;-0.848;2024-01-15T12:48:57;11.70;99.90
42743;DHT22;28397;44.552;-0.848;2024-01-15T12:51:25;11.80;99.90
42743;DHT22;28397;44.552;-0.848;2024-01-15T12:53:52;11.80;99.90
42743;DHT22;28397;44.552;-0.848;2024-01-15T12:56:18;11.80;99.90
42743;DHT22;28397;44.552;-0.848;2024-01-15T12:58:43;11.90;99.90
42743;DHT22;28397;44.552;-0.848;2024-01-15T13:01:09;11.90;99.90
42743;DHT22;28397;44.552;-0.848;2024-01-15T13:03:35;11.90;99.90
42743;DHT22;28397;44.552;-0.848;2024-01-15T13:06:01;12.00;99.90
42743;DHT22;28397;44.552;-0.848;2024-01-15T13:08:26;12.00;99.90
42743;DHT22;28397;44.552;-0.848;2024-01-15T13:10:55;12.00;99.90
42743;DHT22;28397;44.552;-0.848;2024-01-15T13:13:22;12.00;99.90
42743;DHT22;28397;44.552;-0.848;2024-01-15T13:15:48;12.10;99.90
42743;DHT22;28397;44.552;-0.848;2024-01-15T13:18:14;12.20;99.90
42743;DHT22;28397;44.552;-0.848;2024-01-15T13:20:39;12.40;99.90
42743;DHT22;28397;44.552;-0.848;2024-01-15T13:23:05;12.50;99.90
42743;DHT22;28397;44.552;-0.848;2024-01-15T13:25:31;12.50;99.90
42743;DHT22;28397;44.552;-0.848;2024-01-15T13:27:57;12.70;99.90
42743;DHT22;28397;44.552;-0.848;2024-01-15T13:30:23;12.70;99.90
42743;DHT22;28397;44.552;-0.848;2024-01-15T13:32:49;12.90;99.90
42743;DHT22;28397;44.552;-0.848;2024-01-15T13:35:14;12.90;99.90
42743;DHT22;28397;44.552;-0.848;2024-01-15T13:37:40;12.90;99.90
42743;DHT22;28397;44.552;-0.848;2024-01-15T13:40:07;13.00;99.90
42743;DHT22;28397;44.552;-0.848;2024-01-15T13:42:35;13.00;99.90
42743;DHT22;28397;44.552;-0.848;2024-01-15T13:45:04;12.80;99.90
42743;DHT22;28397;44.552;-0.848;2024-01-15T13:47:31;12.80;99.90
42743;DHT22;28397;44.552;-0.848;2024-01-15T13:49:57;12.70;99.90
42743;DHT22;28397;44.552;-0.848;2024-01-15T13:52:23;12.60;99.90
42743;DHT22;28397;44.552;-0.848;2024-01-15T13:54:49;12.60;99.90
42743;DHT22;28397;44.552;-0.848;2024-01-15T13:57:15;12.40;99.90
42743;DHT22;28397;44.552;-0.848;2024-01-15T13:59:40;12.40;99.90
42743;DHT22;28397;44.552;-0.848;2024-01-15T14:02:06;12.30;99.90
42743;DHT22;28397;44.552;-0.848;2024-01-15T14:04:32;12.30;99.90
42743;DHT22;28397;44.552;-0.848;2024-01-15T14:06:57;12.30;99.90
42743;DHT22;28397;44.552;-0.848;2024-01-15T14:09:23;12.30;99.90
42743;DHT22;28397;44.552;-0.848;2024-01-15T14:11:50;12.30;99.90
42743;DHT22;28397;44.552;-0.848;2024-01-15T14:14:16;12.40;99.90
42743;DHT22;28397;44.552;-0.848;2024-01-15T14:16:42;12.40;99.90
42743;DHT22;28397;44.552;-0.848;2024-01-15T14:19:08;12.50;99.90
42743;DHT22;28397;44.552;-0.848;2024-01-15T14:21:35;12.60;99.90
42743;DHT22;28397;44.552;-0.848;2024-01-15T14:24:01;12.70;99.90
42743;DHT22;28397;44.552;-0.848;2024-01-15T14:26:26;12.80;99.90
42743;DHT22;28397;44.552;-0.848;2024-01-15T14:28:53;12.80;99.90
42743;DHT22;28397;44.552;-0.848;2024-01-15T14:31:20;12.90;99.90
42743;DHT22;28397;44.552;-0.848;2024-01-15T14:33:45;13.00;99.90
42743;DHT22;28397;44.552;-0.848;2024-01-15T14:36:11;13.00;99.90
42743;DHT22;28397;44.552;-0.848;2024-01-15T14:38:37;13.00;99.90
42743;DHT22;28397;44.552;-0.848;2024-01-15T14:41:02;13.00;99.90
42743;DHT22;28397;44.552;-0.848;2024-01-15T14:43:29;13.00;99.90
42743;DHT22;28397;44.552;-0.848;2024-01-15T14:45:55;13.00;99.90
42743;DHT22;28397;44.552;-0.848;2024-01-15T14:48:22;13.00;99.90
42743;DHT22;28397;44.552;-0.848;2024-01-15T14:50:47;13.00;99.90
42743;DHT22;28397;44.552;-0.848;2024-01-15T14:53:13;13.00;99.90
42743;DHT22;28397;44.552;-0.848;2024-01-15T14:55:38;12.90;99.90
42743;DHT22;28397;44.552;-0.848;2024-01-15T14:58:04;12.90;99.90
42743;DHT22;28397;44.552;-0.848;2024-01-15T15:00:30;12.90;99.90
42743;DHT22;28397;44.552;-0.848;2024-01-15T15:02:55;13.10;99.90
42743;DHT22;28397;44.552;-0.848;2024-01-15T15:05:21;13.10;99.90
42743;DHT22;28397;44.552;-0.848;2024-01-15T15:07:47;13.20;99.90
42743;DHT22;28397;44.552;-0.848;2024-01-15T15:10:12;13.30;99.90
42743;DHT22;28397;44.552;-0.848;2024-01-15T15:12:38;13.30;99.90
42743;DHT22;28397;44.552;-0.848;2024-01-15T15:15:04;13.30;99.90
42743;DHT22;28397;44.552;-0.848;2024-01-15T15:17:30;13.40;99.90
42743;DHT22;28397;44.552;-0.848;2024-01-15T15:19:55;13.40;99.90
42743;DHT22;28397;44.552;-0.848;2024-01-15T15:22:21;13.50;99.90
42743;DHT22;28397;44.552;-0.848;2024-01-15T15:24:47;13.40;99.90
42743;DHT22;28397;44.552;-0.848;2024-01-15T15:27:13;13.30;99.90
42743;DHT22;28397;44.552;-0.848;2024-01-15T15:29:38;13.30;99.90
42743;DHT22;28397;44.552;-0.848;2024-01-15T15:32:04;13.20;99.90
42743;DHT22;28397;44.552;-0.848;2024-01-15T15:34:30;13.20;99.90
42743;DHT22;28397;44.552;-0.848;2024-01-15T15:36:55;13.10;99.90